createdAt,value
2018-11-28T00:00:43.803Z,101368.13
2018-11-28T00:03:11.276Z,101362.27
2018-11-28T00:05:38.652Z,101358.30
2018-11-28T00:08:06.126Z,101354.64
2018-11-28T00:10:33.750Z,101349.55
2018-11-28T00:13:01.261Z,101352.84
2018-11-28T00:15:28.732Z,101371.83
2018-11-28T00:17:56.179Z,101372.66
2018-11-28T00:20:23.652Z,101369.22
2018-11-28T00:22:51.198Z,101362.45
2018-11-28T00:25:18.996Z,101357.97
2018-11-28T00:27:46.535Z,101357.77
2018-11-28T00:30:18.714Z,101368.13
2018-11-28T00:32:46.255Z,101362.02
2018-11-28T00:35:14.862Z,101359.41
2018-11-28T00:37:42.300Z,101361.75
2018-11-28T00:40:13.663Z,101360.01
2018-11-28T00:42:41.395Z,101360.59
2018-11-28T00:45:13.824Z,101358.89
2018-11-28T00:47:41.344Z,101358.79
2018-11-28T00:50:10.205Z,101357.88
2018-11-28T00:52:37.880Z,101362.95
2018-11-28T00:55:07.349Z,101360.97
2018-11-28T00:57:34.947Z,101364.89
2018-11-28T01:00:02.541Z,101359.09
2018-11-28T01:02:29.981Z,101356.09
2018-11-28T01:04:57.412Z,101356.33
2018-11-28T01:07:24.833Z,101353.38
2018-11-28T01:09:52.325Z,101361.21
2018-11-28T01:12:19.720Z,101355.27
2018-11-28T01:14:47.108Z,101357.97
2018-11-28T01:17:14.523Z,101356.52
2018-11-28T01:19:41.920Z,101350.00
2018-11-28T01:22:09.422Z,101354.20
2018-11-28T01:24:36.836Z,101357.09
2018-11-28T01:27:04.783Z,101359.17
2018-11-28T01:29:32.216Z,101357.66
2018-11-28T01:31:59.658Z,101356.59
2018-11-28T01:34:27.093Z,101357.84
2018-11-28T01:36:54.550Z,101357.29
2018-11-28T01:39:21.944Z,101354.70
2018-11-28T01:41:49.444Z,101354.59
2018-11-28T01:44:16.973Z,101346.91
2018-11-28T01:46:44.496Z,101344.75
2018-11-28T01:49:11.892Z,101351.83
2018-11-28T01:51:39.376Z,101354.28
2018-11-28T01:54:06.941Z,101352.94
2018-11-28T01:56:34.517Z,101352.92
2018-11-28T01:59:01.896Z,101352.99
2018-11-28T02:01:29.340Z,101354.84
2018-11-28T02:03:56.835Z,101357.64
2018-11-28T02:06:24.408Z,101359.12
2018-11-28T02:08:51.806Z,101358.47
2018-11-28T02:11:21.992Z,101356.30
2018-11-28T02:13:49.404Z,101345.91
2018-11-28T02:16:16.880Z,101351.30
2018-11-28T02:18:44.331Z,101346.97
2018-11-28T02:21:11.716Z,101350.50
2018-11-28T02:23:39.346Z,101344.77
2018-11-28T02:26:06.864Z,101345.01
2018-11-28T02:28:34.376Z,101343.48
2018-11-28T02:31:01.968Z,101348.52
2018-11-28T02:33:29.441Z,101342.83
2018-11-28T02:37:27.869Z,101342.13
2018-11-28T02:39:55.456Z,101344.82
2018-11-28T02:42:22.860Z,101347.61
2018-11-28T02:44:50.393Z,101347.37
2018-11-28T02:47:17.838Z,101349.22
2018-11-28T02:49:45.304Z,101354.94
2018-11-28T02:52:12.728Z,101353.27
2018-11-28T02:54:40.205Z,101350.73
2018-11-28T02:57:07.615Z,101352.47
2018-11-28T02:59:35.099Z,101351.17
2018-11-28T03:02:02.616Z,101355.06
2018-11-28T03:04:30.105Z,101349.13
2018-11-28T03:06:57.533Z,101357.03
2018-11-28T03:09:25.072Z,101362.81
2018-11-28T03:11:52.595Z,101356.88
2018-11-28T03:14:20.075Z,101362.06
2018-11-28T03:16:47.519Z,101363.36
2018-11-28T03:19:14.977Z,101365.58
2018-11-28T03:21:42.452Z,101358.17
2018-11-28T03:24:09.897Z,101357.30
2018-11-28T03:26:37.329Z,101355.23
2018-11-28T03:29:04.844Z,101360.83
2018-11-28T03:31:32.495Z,101355.61
2018-11-28T03:33:59.905Z,101357.02
2018-11-28T03:36:27.503Z,101357.52
2018-11-28T03:38:54.940Z,101361.29
2018-11-28T03:41:22.388Z,101360.80
2018-11-28T03:43:49.796Z,101358.98
2018-11-28T03:46:17.219Z,101359.11
2018-11-28T03:48:44.589Z,101356.11
2018-11-28T03:51:12.071Z,101351.13
2018-11-28T03:53:39.461Z,101351.72
2018-11-28T03:56:06.927Z,101355.34
2018-11-28T03:58:34.423Z,101366.33
2018-11-28T04:01:01.852Z,101365.65
2018-11-28T04:03:29.375Z,101360.05
2018-11-28T04:05:56.924Z,101360.85
2018-11-28T04:08:24.344Z,101364.48
2018-11-28T04:10:51.819Z,101368.28
2018-11-28T04:13:19.271Z,101365.79
2018-11-28T04:15:46.656Z,101368.25
2018-11-28T04:18:14.076Z,101361.61
2018-11-28T04:20:41.587Z,101368.36
2018-11-28T04:23:09.007Z,101375.58
2018-11-28T04:25:36.379Z,101377.77
2018-11-28T04:28:03.880Z,101369.99
2018-11-28T04:30:31.409Z,101368.45
2018-11-28T04:32:58.976Z,101377.22
2018-11-28T04:35:26.393Z,101368.19
2018-11-28T04:37:53.814Z,101365.45
2018-11-28T04:40:21.571Z,101367.61
2018-11-28T04:42:49.401Z,101366.89
2018-11-28T04:45:21.710Z,101359.28
2018-11-28T04:47:50.005Z,101356.64
2018-11-28T04:50:17.484Z,101358.19
2018-11-28T04:52:45.024Z,101357.42
2018-11-28T04:55:19.262Z,101354.91
2018-11-28T04:57:46.953Z,101360.00
2018-11-28T05:00:17.554Z,101359.17
2018-11-28T05:02:45.031Z,101350.94
2018-11-28T05:05:12.467Z,101350.67
2018-11-28T05:07:40.545Z,101353.47
2018-11-28T05:10:10.293Z,101345.30
2018-11-28T05:12:37.764Z,101344.42
2018-11-28T05:15:13.653Z,101343.25
2018-11-28T05:17:41.381Z,101347.31
2018-11-28T05:20:10.195Z,101341.64
2018-11-28T05:22:37.758Z,101344.59
2018-11-28T05:25:07.556Z,101347.92
2018-11-28T05:27:35.026Z,101354.73
2018-11-28T05:30:02.926Z,101349.92
2018-11-28T05:32:30.361Z,101364.30
2018-11-28T05:34:57.822Z,101367.53
2018-11-28T05:37:25.246Z,101365.92
2018-11-28T05:39:52.725Z,101369.71
2018-11-28T05:42:20.190Z,101367.62
2018-11-28T05:44:47.710Z,101364.23
2018-11-28T05:47:15.127Z,101363.80
2018-11-28T05:49:42.581Z,101368.88
2018-11-28T05:52:10.233Z,101368.30
2018-11-28T05:54:37.715Z,101369.13
2018-11-28T05:57:05.714Z,101373.97
2018-11-28T05:59:33.239Z,101376.89
2018-11-28T06:02:00.759Z,101369.83
2018-11-28T06:04:28.179Z,101373.22
2018-11-28T06:06:55.651Z,101372.23
2018-11-28T06:09:23.097Z,101376.80
2018-11-28T06:11:50.535Z,101375.86
2018-11-28T06:14:18.079Z,101380.89
2018-11-28T06:16:45.523Z,101376.05
2018-11-28T06:19:12.934Z,101381.45
2018-11-28T06:21:40.416Z,101375.90
2018-11-28T06:24:07.841Z,101375.83
2018-11-28T06:26:35.349Z,101383.75
2018-11-28T06:29:02.765Z,101394.59
2018-11-28T06:31:30.279Z,101395.89
2018-11-28T06:33:57.671Z,101397.35
2018-11-28T06:36:25.105Z,101397.35
2018-11-28T06:38:52.639Z,101408.16
2018-11-28T06:41:20.070Z,101419.23
2018-11-28T06:43:47.507Z,101410.98
2018-11-28T06:46:15.015Z,101414.73
2018-11-28T06:48:42.467Z,101410.03
2018-11-28T06:51:09.929Z,101416.73
2018-11-28T06:53:37.375Z,101406.87
2018-11-28T06:56:04.915Z,101403.52
2018-11-28T06:58:32.491Z,101403.91
2018-11-28T07:01:00.023Z,101412.83
2018-11-28T07:03:27.507Z,101415.55
2018-11-28T07:05:54.957Z,101414.25
2018-11-28T07:08:22.410Z,101419.55
2018-11-28T07:10:49.989Z,101418.33
2018-11-28T07:13:17.500Z,101413.16
2018-11-28T07:15:44.946Z,101423.14
2018-11-28T07:18:23.910Z,101427.00
2018-11-28T07:20:51.426Z,101432.72
2018-11-28T07:23:18.926Z,101433.27
2018-11-28T07:25:46.396Z,101431.92
2018-11-28T07:28:13.932Z,101434.10
2018-11-28T07:30:41.398Z,101444.88
2018-11-28T07:33:10.451Z,101437.22
2018-11-28T07:35:37.420Z,101444.52
2018-11-28T07:38:05.592Z,101438.88
2018-11-28T07:40:33.128Z,101444.08
2018-11-28T07:43:10.631Z,101448.94
2018-11-28T07:45:42.547Z,101439.11
2018-11-28T07:48:10.002Z,101440.16
2018-11-28T07:50:37.508Z,101438.76
2018-11-28T07:53:05.342Z,101440.14
2018-11-28T07:55:32.734Z,101440.48
2018-11-28T07:58:00.190Z,101438.67
2018-11-28T08:00:27.796Z,101437.37
2018-11-28T08:02:55.361Z,101451.89
2018-11-28T08:05:22.920Z,101452.02
2018-11-28T08:07:50.412Z,101460.97
2018-11-28T08:10:26.252Z,101462.38
2018-11-28T08:12:56.992Z,101473.63
2018-11-28T08:15:24.531Z,101471.80
2018-11-28T08:17:51.928Z,101465.11
2018-11-28T08:20:19.558Z,101469.72
2018-11-28T08:22:47.050Z,101469.89
2018-11-28T08:25:15.674Z,101463.94
2018-11-28T08:27:44.260Z,101467.09
2018-11-28T08:30:14.422Z,101480.48
2018-11-28T08:32:42.012Z,101472.61
2018-11-28T08:35:10.232Z,101482.13
2018-11-28T08:37:37.679Z,101484.34
2018-11-28T08:40:08.946Z,101487.91
2018-11-28T08:42:36.386Z,101478.00
2018-11-28T08:45:04.254Z,101472.30
2018-11-28T08:47:31.698Z,101477.91
2018-11-28T08:49:59.120Z,101481.98
2018-11-28T08:52:26.612Z,101482.69
2018-11-28T08:54:54.048Z,101480.39
2018-11-28T08:57:21.656Z,101483.81
2018-11-28T08:59:49.126Z,101474.63
2018-11-28T09:02:16.620Z,101470.37
2018-11-28T09:04:44.319Z,101475.69
2018-11-28T09:07:11.785Z,101473.13
2018-11-28T09:09:39.173Z,101475.61
2018-11-28T09:12:06.727Z,101486.88
2018-11-28T09:14:34.153Z,101474.02
2018-11-28T09:17:01.714Z,101471.63
2018-11-28T09:19:29.165Z,101472.59
2018-11-28T09:21:56.642Z,101471.29
2018-11-28T09:24:24.032Z,101476.99
2018-11-28T09:26:51.488Z,101466.20
2018-11-28T09:29:18.900Z,101473.00
2018-11-28T09:31:46.350Z,101469.66
2018-11-28T09:34:13.796Z,101476.48
2018-11-28T09:36:41.199Z,101482.16
2018-11-28T09:39:08.673Z,101481.66
2018-11-28T09:41:36.284Z,101482.95
2018-11-28T09:44:03.779Z,101488.92
2018-11-28T09:46:31.206Z,101498.62
2018-11-28T09:48:58.988Z,101493.21
2018-11-28T09:51:26.406Z,101492.60
2018-11-28T09:53:53.823Z,101485.28
2018-11-28T09:56:21.384Z,101482.67
2018-11-28T09:58:48.952Z,101485.41
2018-11-28T10:01:16.439Z,101487.12
2018-11-28T10:03:43.916Z,101484.05
2018-11-28T10:06:11.370Z,101475.55
2018-11-28T10:08:38.944Z,101482.30
2018-11-28T10:11:06.416Z,101479.31
2018-11-28T10:13:33.842Z,101478.14
2018-11-28T10:16:01.906Z,101471.78
2018-11-28T10:18:28.763Z,101470.20
2018-11-28T10:20:56.176Z,101472.50
2018-11-28T10:23:23.572Z,101468.77
2018-11-28T10:25:51.102Z,101473.14
2018-11-28T10:28:18.723Z,101470.85
2018-11-28T10:30:46.233Z,101466.86
2018-11-28T10:33:13.653Z,101459.91
2018-11-28T10:35:41.353Z,101462.61
2018-11-28T10:38:08.978Z,101460.09
2018-11-28T10:40:37.129Z,101457.84
2018-11-28T10:43:05.443Z,101461.75
2018-11-28T10:45:32.965Z,101463.09
2018-11-28T10:48:00.483Z,101453.13
2018-11-28T10:50:27.962Z,101454.30
2018-11-28T10:52:55.474Z,101452.00
2018-11-28T10:55:24.110Z,101454.44
2018-11-28T10:57:51.643Z,101452.62
2018-11-28T11:00:25.841Z,101455.68
2018-11-28T11:02:59.064Z,101445.59
2018-11-28T11:05:32.318Z,101439.14
2018-11-28T11:08:05.588Z,101439.59
2018-11-28T11:10:38.669Z,101434.80
2018-11-28T11:13:11.857Z,101437.16
2018-11-28T11:15:39.454Z,101433.34
2018-11-28T11:18:10.699Z,101435.08
2018-11-28T11:20:37.561Z,101432.72
2018-11-28T11:23:06.258Z,101433.86
2018-11-28T11:25:33.951Z,101422.61
2018-11-28T11:28:01.472Z,101425.50
2018-11-28T11:30:29.045Z,101423.95
2018-11-28T11:32:56.744Z,101423.17
2018-11-28T11:35:24.231Z,101428.95
2018-11-28T11:37:51.634Z,101422.40
2018-11-28T11:40:19.139Z,101421.72
2018-11-28T11:42:46.537Z,101418.48
2018-11-28T11:45:14.989Z,101417.94
2018-11-28T11:47:42.742Z,101413.39
2018-11-28T11:50:14.295Z,101413.77
2018-11-28T11:52:41.811Z,101413.47
2018-11-28T11:55:11.163Z,101403.81
2018-11-28T11:57:38.370Z,101406.89
2018-11-28T12:00:11.257Z,101406.61
2018-11-28T12:02:39.420Z,101410.32
2018-11-28T12:05:08.609Z,101409.15
2018-11-28T12:07:36.453Z,101406.45
2018-11-28T12:10:09.052Z,101407.94
2018-11-28T12:12:35.370Z,101403.70
2018-11-28T12:15:03.044Z,101392.77
2018-11-28T12:17:30.691Z,101396.34
2018-11-28T12:19:58.116Z,101394.17
2018-11-28T12:22:25.701Z,101391.44
2018-11-28T12:24:53.137Z,101381.56
2018-11-28T12:27:20.744Z,101383.77
2018-11-28T12:29:48.279Z,101387.11
2018-11-28T12:32:15.753Z,101382.56
2018-11-28T12:34:43.269Z,101385.94
2018-11-28T12:37:10.719Z,101384.03
2018-11-28T12:39:38.258Z,101390.02
2018-11-28T12:42:06.037Z,101378.85
2018-11-28T12:44:33.441Z,101383.09
2018-11-28T12:47:00.883Z,101379.08
2018-11-28T12:49:28.419Z,101384.94
2018-11-28T12:51:55.880Z,101387.02
2018-11-28T12:54:23.326Z,101384.03
2018-11-28T12:56:50.799Z,101386.09
2018-11-28T12:59:18.395Z,101381.00
2018-11-28T13:01:45.794Z,101370.70
2018-11-28T13:04:13.376Z,101382.63
2018-11-28T13:06:40.829Z,101377.60
2018-11-28T13:09:08.454Z,101372.59
2018-11-28T13:11:36.311Z,101375.98
2018-11-28T13:14:03.850Z,101382.70
2018-11-28T13:16:31.304Z,101371.91
2018-11-28T13:18:58.716Z,101376.92
2018-11-28T13:21:26.213Z,101370.53
2018-11-28T13:23:53.656Z,101372.84
2018-11-28T13:26:21.192Z,101369.70
2018-11-28T13:28:48.628Z,101370.15
2018-11-28T13:31:16.156Z,101367.91
2018-11-28T13:33:43.612Z,101370.16
2018-11-28T13:36:11.075Z,101370.83
2018-11-28T13:38:38.653Z,101362.91
2018-11-28T13:41:06.309Z,101365.61
2018-11-28T13:43:33.914Z,101363.38
2018-11-28T13:46:07.060Z,101360.14
2018-11-28T13:48:29.310Z,101356.59
2018-11-28T13:50:56.829Z,101356.20
2018-11-28T13:53:24.286Z,101352.52
2018-11-28T13:56:57.447Z,101351.73
2018-11-28T13:58:23.203Z,101344.80
2018-11-28T14:00:50.629Z,101344.41
2018-11-28T14:03:18.203Z,101346.31
2018-11-28T14:05:45.656Z,101353.48
2018-11-28T14:08:13.083Z,101352.94
2018-11-28T14:10:40.548Z,101354.87
2018-11-28T14:13:08.146Z,101353.80
2018-11-28T14:15:35.595Z,101354.00
2018-11-28T14:18:06.715Z,101355.31
2018-11-28T14:20:34.135Z,101350.25
2018-11-28T14:23:01.613Z,101346.31
2018-11-28T14:25:29.157Z,101345.20
2018-11-28T14:27:56.730Z,101347.94
2018-11-28T14:30:25.250Z,101349.76
2018-11-28T14:32:52.349Z,101346.24
2018-11-28T14:35:20.767Z,101346.80
2018-11-28T14:37:48.259Z,101350.80
2018-11-28T14:40:17.039Z,101353.73
2018-11-28T14:42:45.936Z,101356.42
2018-11-28T14:45:14.656Z,101356.35
2018-11-28T14:47:42.388Z,101347.77
2018-11-28T14:50:12.995Z,101347.87
2018-11-28T14:52:40.515Z,101347.62
2018-11-28T14:55:12.387Z,101345.00
2018-11-28T14:57:40.253Z,101347.34
2018-11-28T15:00:12.321Z,101344.79
2018-11-28T15:02:39.850Z,101349.13
2018-11-28T15:05:19.415Z,101348.95
2018-11-28T15:07:47.329Z,101360.75
2018-11-28T15:10:15.512Z,101351.64
2018-11-28T15:12:43.299Z,101359.52
2018-11-28T15:15:10.794Z,101359.19
2018-11-28T15:17:38.260Z,101365.66
2018-11-28T15:20:07.312Z,101362.02
2018-11-28T15:22:34.834Z,101360.50
2018-11-28T15:25:03.720Z,101360.11
2018-11-28T15:27:31.274Z,101358.55
2018-11-28T15:29:59.346Z,101350.16
2018-11-28T15:32:26.875Z,101347.13
2018-11-28T15:34:57.897Z,101342.56
2018-11-28T15:37:21.845Z,101341.29
2018-11-28T15:39:49.368Z,101332.58
2018-11-28T15:42:16.965Z,101337.27
2018-11-28T15:44:44.368Z,101339.59
2018-11-28T15:47:11.812Z,101336.50
2018-11-28T15:49:39.257Z,101335.22
2018-11-28T15:52:06.748Z,101340.14
2018-11-28T15:54:34.164Z,101337.27
2018-11-28T15:57:01.972Z,101333.19
2018-11-28T15:59:29.558Z,101331.13
2018-11-28T16:01:57.023Z,101329.03
2018-11-28T16:04:24.449Z,101326.03
2018-11-28T16:06:52.008Z,101330.16
2018-11-28T16:09:25.017Z,101337.17
2018-11-28T16:11:52.485Z,101339.73
2018-11-28T16:14:20.828Z,101346.75
2018-11-28T16:16:48.395Z,101335.69
2018-11-28T16:19:15.801Z,101335.05
2018-11-28T16:21:43.236Z,101329.30
2018-11-28T16:24:10.753Z,101330.53
2018-11-28T16:26:38.484Z,101341.64
2018-11-28T16:29:05.924Z,101345.34
2018-11-28T16:31:33.404Z,101341.64
2018-11-28T16:34:00.793Z,101337.34
2018-11-28T16:36:28.417Z,101337.81
2018-11-28T16:38:55.953Z,101337.34
2018-11-28T16:41:23.368Z,101339.63
2018-11-28T16:43:51.002Z,101331.05
2018-11-28T16:46:18.441Z,101328.11
2018-11-28T16:48:45.842Z,101327.34
2018-11-28T16:51:13.322Z,101322.71
2018-11-28T16:53:40.832Z,101330.43
2018-11-28T16:56:08.450Z,101330.68
2018-11-28T16:58:35.944Z,101326.98
2018-11-28T17:01:03.610Z,101324.97
2018-11-28T17:03:31.022Z,101331.81
2018-11-28T17:05:58.614Z,101328.43
2018-11-28T17:08:26.028Z,101337.50
2018-11-28T17:10:53.512Z,101349.69
2018-11-28T17:13:21.064Z,101349.94
2018-11-28T17:15:48.527Z,101343.08
2018-11-28T17:18:15.949Z,101339.31
2018-11-28T17:20:43.401Z,101335.19
2018-11-28T17:23:10.848Z,101324.56
2018-11-28T17:25:38.575Z,101332.35
2018-11-28T17:28:06.192Z,101334.34
2018-11-28T17:30:33.998Z,101334.66
2018-11-28T17:33:01.412Z,101330.95
2018-11-28T17:35:28.861Z,101328.63
2018-11-28T17:37:56.318Z,101334.91
2018-11-28T17:40:25.467Z,101346.78
2018-11-28T17:42:54.665Z,101359.92
2018-11-28T17:45:22.668Z,101361.33
2018-11-28T17:47:50.407Z,101369.00
2018-11-28T17:50:22.121Z,101365.52
2018-11-28T17:52:56.400Z,101368.91
2018-11-28T17:55:24.755Z,101368.77
2018-11-28T17:57:52.328Z,101364.56
2018-11-28T18:00:19.902Z,101354.97
2018-11-28T18:02:47.404Z,101348.70
2018-11-28T18:05:14.862Z,101340.92
2018-11-28T18:07:42.315Z,101347.41
2018-11-28T18:10:13.646Z,101346.61
2018-11-28T18:12:52.408Z,101360.41
2018-11-28T18:15:20.355Z,101356.86
2018-11-28T18:17:47.778Z,101356.70
2018-11-28T18:20:15.560Z,101362.48
2018-11-28T18:22:43.047Z,101360.65
2018-11-28T18:25:10.550Z,101356.97
2018-11-28T18:27:38.099Z,101349.63
2018-11-28T18:30:07.500Z,101350.41
2018-11-28T18:32:34.939Z,101350.48
2018-11-28T18:35:02.393Z,101348.41
2018-11-28T18:37:29.954Z,101342.93
2018-11-28T18:39:57.400Z,101352.71
2018-11-28T18:42:24.831Z,101351.59
2018-11-28T18:44:52.427Z,101348.10
2018-11-28T18:47:19.884Z,101345.72
2018-11-28T18:49:47.428Z,101349.94
2018-11-28T18:52:15.041Z,101349.11
2018-11-28T18:54:42.435Z,101356.66
2018-11-28T18:57:09.923Z,101352.34
2018-11-28T18:59:37.379Z,101358.05
2018-11-28T19:02:05.780Z,101354.57
2018-11-28T19:04:33.235Z,101350.88
2018-11-28T19:07:00.763Z,101355.95
2018-11-28T19:09:33.798Z,101350.79
2018-11-28T19:12:01.244Z,101352.27
2018-11-28T19:14:28.672Z,101344.88
2018-11-28T19:16:56.253Z,101350.70
2018-11-28T19:19:23.869Z,101353.56
2018-11-28T19:21:51.353Z,101357.41
2018-11-28T19:24:18.768Z,101351.24
2018-11-28T19:26:46.240Z,101339.52
2018-11-28T19:29:13.710Z,101342.30
2018-11-28T19:31:41.321Z,101348.46
2018-11-28T19:34:08.759Z,101353.95
2018-11-28T19:36:36.260Z,101354.88
2018-11-28T19:39:06.568Z,101349.45
2018-11-28T19:41:34.155Z,101354.24
2018-11-28T19:44:01.743Z,101351.14
2018-11-28T19:46:29.322Z,101351.38
2018-11-28T19:48:57.010Z,101355.68
2018-11-28T19:51:24.995Z,101349.30
2018-11-28T19:53:52.764Z,101352.52
2018-11-28T19:56:20.249Z,101360.44
2018-11-28T19:58:47.746Z,101356.61
2018-11-28T20:01:15.378Z,101358.84
2018-11-28T20:03:42.848Z,101364.08
2018-11-28T20:06:10.336Z,101361.23
2018-11-28T20:08:37.856Z,101362.13
2018-11-28T20:11:05.936Z,101360.44
2018-11-28T20:13:33.361Z,101367.23
2018-11-28T20:16:00.891Z,101367.46
2018-11-28T20:18:28.337Z,101361.55
2018-11-28T20:20:55.874Z,101361.11
2018-11-28T20:23:23.352Z,101360.11
2018-11-28T20:25:51.005Z,101365.16
2018-11-28T20:28:18.416Z,101368.68
2018-11-28T20:30:45.930Z,101370.11
2018-11-28T20:33:14.901Z,101365.30
2018-11-28T20:35:43.481Z,101365.07
2018-11-28T20:38:43.336Z,101358.46
2018-11-28T20:41:10.860Z,101355.27
2018-11-28T20:43:38.387Z,101361.75
2018-11-28T20:46:06.526Z,101356.80
2018-11-28T20:48:34.039Z,101362.09
2018-11-28T20:51:01.518Z,101359.64
2018-11-28T20:53:29.193Z,101355.52
2018-11-28T20:55:56.712Z,101354.11
2018-11-28T20:58:24.170Z,101349.09
2018-11-28T21:00:51.728Z,101350.67
2018-11-28T21:03:19.326Z,101356.23
2018-11-28T21:05:46.884Z,101358.59
2018-11-28T21:08:14.404Z,101367.20
2018-11-28T21:10:41.938Z,101374.11
2018-11-28T21:13:10.916Z,101374.11
2018-11-28T21:15:39.085Z,101372.64
2018-11-28T21:18:07.734Z,101372.47
2018-11-28T21:20:35.284Z,101366.50
2018-11-28T21:23:07.711Z,101359.94
2018-11-28T21:25:35.528Z,101354.79
2018-11-28T21:28:04.267Z,101366.66
2018-11-28T21:30:32.561Z,101362.14
2018-11-28T21:33:00.160Z,101360.30
2018-11-28T21:35:29.703Z,101357.45
2018-11-28T21:37:57.159Z,101360.03
2018-11-28T21:40:24.681Z,101356.23
2018-11-28T21:42:52.124Z,101365.89
2018-11-28T21:45:20.637Z,101359.17
2018-11-28T21:47:48.093Z,101363.24
2018-11-28T21:50:16.763Z,101351.27
2018-11-28T21:52:44.258Z,101341.17
2018-11-28T21:55:14.179Z,101333.27
2018-11-28T21:57:41.753Z,101333.55
2018-11-28T22:00:13.370Z,101322.97
2018-11-28T22:02:40.880Z,101321.85
2018-11-28T22:05:09.497Z,101317.56
2018-11-28T22:07:37.012Z,101318.78
2018-11-28T22:10:07.245Z,101309.66
2018-11-28T22:12:34.681Z,101309.83
2018-11-28T22:15:02.323Z,101320.91
2018-11-28T22:17:29.857Z,101325.45
2018-11-28T22:19:57.343Z,101328.30
2018-11-28T22:22:24.817Z,101330.52
2018-11-28T22:24:52.234Z,101324.53
2018-11-28T22:27:19.687Z,101331.97
2018-11-28T22:29:47.157Z,101340.03
2018-11-28T22:32:14.629Z,101343.03
2018-11-28T22:34:42.109Z,101347.65
2018-11-28T22:37:09.736Z,101352.94
2018-11-28T22:39:37.209Z,101357.38
2018-11-28T22:42:05.022Z,101355.25
2018-11-28T22:44:32.505Z,101364.63
2018-11-28T22:46:59.951Z,101354.50
2018-11-28T22:49:27.399Z,101360.24
2018-11-28T22:51:54.983Z,101364.67
2018-11-28T22:54:22.400Z,101362.80
2018-11-28T22:56:49.886Z,101365.34
2018-11-28T22:59:17.690Z,101365.20
2018-11-28T23:02:55.667Z,101366.14
2018-11-28T23:05:26.962Z,101366.71
2018-11-28T23:07:55.605Z,101368.85
2018-11-28T23:10:23.140Z,101363.50
2018-11-28T23:12:50.900Z,101344.52
2018-11-28T23:15:18.384Z,101335.81
2018-11-28T23:17:45.920Z,101323.16
2018-11-28T23:20:13.388Z,101323.20
2018-11-28T23:22:40.919Z,101324.02
2018-11-28T23:25:11.131Z,101316.48
2018-11-28T23:27:38.722Z,101326.34
2018-11-28T23:30:09.455Z,101307.26
2018-11-28T23:32:36.949Z,101304.86
2018-11-28T23:35:06.200Z,101327.07
2018-11-28T23:37:33.675Z,101331.84
2018-11-28T23:40:01.098Z,101341.94
2018-11-28T23:42:28.635Z,101340.58
2018-11-28T23:44:56.112Z,101340.11
2018-11-28T23:47:24.658Z,101333.06
2018-11-28T23:49:52.105Z,101332.91
2018-11-28T23:52:19.553Z,101328.84
2018-11-28T23:54:46.951Z,101327.46
2018-11-28T23:57:14.409Z,101317.27
2018-11-28T23:59:41.844Z,101323.55
